createdAt,value
2018-10-11T00:00:03.286Z,101602.33
2018-10-11T00:02:32.135Z,101598.48
2018-10-11T00:05:01.493Z,101605.73
2018-10-11T00:07:30.317Z,101601.36
2018-10-11T00:09:59.380Z,101603.11
2018-10-11T00:12:28.363Z,101605.08
2018-10-11T00:14:57.771Z,101599.91
2018-10-11T00:17:27.504Z,101607.48
2018-10-11T00:19:56.216Z,101602.38
2018-10-11T00:22:25.404Z,101604.46
2018-10-11T00:24:54.217Z,101599.63
2018-10-11T00:27:22.930Z,101598.19
2018-10-11T00:29:51.686Z,101598.88
2018-10-11T00:32:20.688Z,101600.09
2018-10-11T00:34:49.799Z,101596.75
2018-10-11T00:37:18.654Z,101585.36
2018-10-11T00:39:47.411Z,101585.87
2018-10-11T00:42:16.128Z,101584.58
2018-10-11T00:44:44.883Z,101584.58
2018-10-11T00:47:13.542Z,101586.84
2018-10-11T00:49:42.280Z,101582.80
2018-10-11T00:52:11.304Z,101582.84
2018-10-11T00:54:40.448Z,101579.02
2018-10-11T00:57:09.159Z,101571.33
2018-10-11T00:59:37.852Z,101571.65
2018-10-11T01:02:06.837Z,101573.88
2018-10-11T01:04:35.627Z,101566.31
2018-10-11T01:07:04.351Z,101569.92
2018-10-11T01:09:33.029Z,101562.03
2018-10-11T01:12:01.781Z,101560.88
2018-10-11T01:14:30.474Z,101550.83
2018-10-11T01:16:59.370Z,101540.95
2018-10-11T01:19:28.351Z,101546.52
2018-10-11T01:21:57.574Z,101544.56
2018-10-11T01:24:27.136Z,101553.00
2018-10-11T01:26:56.057Z,101550.67
2018-10-11T01:29:25.181Z,101545.52
2018-10-11T01:31:54.625Z,101545.37
2018-10-11T01:34:23.314Z,101553.59
2018-10-11T01:36:52.507Z,101553.67
2018-10-11T01:39:21.635Z,101550.66
2018-10-11T01:41:50.825Z,101552.55
2018-10-11T01:44:19.610Z,101558.77
2018-10-11T01:46:48.682Z,101557.09
2018-10-11T01:49:17.499Z,101553.27
2018-10-11T01:51:46.632Z,101554.11
2018-10-11T01:54:15.700Z,101553.13
2018-10-11T01:56:45.081Z,101550.11
2018-10-11T01:59:13.850Z,101549.09
2018-10-11T02:01:42.865Z,101545.75
2018-10-11T02:04:11.632Z,101539.75
2018-10-11T02:06:40.333Z,101541.28
2018-10-11T02:09:09.496Z,101540.45
2018-10-11T02:11:38.418Z,101538.13
2018-10-11T02:14:07.259Z,101538.20
2018-10-11T02:16:36.274Z,101534.49
2018-10-11T02:19:05.471Z,101533.00
2018-10-11T02:21:34.178Z,101530.17
2018-10-11T02:24:02.879Z,101529.48
2018-10-11T02:26:31.579Z,101517.74
2018-10-11T02:29:00.338Z,101514.37
2018-10-11T02:31:31.092Z,101516.41
2018-10-11T02:33:59.787Z,101510.27
2018-10-11T02:36:28.927Z,101511.78
2018-10-11T02:38:58.222Z,101509.50
2018-10-11T02:41:26.926Z,101513.20
2018-10-11T02:43:56.159Z,101516.58
2018-10-11T02:46:24.857Z,101512.22
2018-10-11T02:48:53.617Z,101513.96
2018-10-11T02:51:22.618Z,101512.80
2018-10-11T02:53:51.875Z,101506.27
2018-10-11T02:56:22.450Z,101503.43
2018-10-11T02:59:02.137Z,101501.47
2018-10-11T03:01:31.356Z,101495.94
2018-10-11T03:04:04.240Z,101505.41
2018-10-11T03:06:34.701Z,101506.11
2018-10-11T03:09:04.727Z,101500.41
2018-10-11T03:11:33.540Z,101497.06
2018-10-11T03:14:02.369Z,101498.41
2018-10-11T03:16:31.066Z,101499.13
2018-10-11T03:19:00.270Z,101500.77
2018-10-11T03:21:28.987Z,101501.60
2018-10-11T03:23:57.978Z,101494.05
2018-10-11T03:26:26.714Z,101489.07
2018-10-11T03:28:55.438Z,101491.42
2018-10-11T03:31:24.469Z,101495.78
2018-10-11T03:33:53.521Z,101492.59
2018-10-11T03:36:22.457Z,101494.12
2018-10-11T03:38:51.423Z,101493.45
2018-10-11T03:41:20.146Z,101493.79
2018-10-11T03:43:48.863Z,101488.92
2018-10-11T03:46:17.798Z,101488.59
2018-10-11T03:48:46.503Z,101479.70
2018-10-11T03:51:15.323Z,101481.55
2018-10-11T03:53:44.635Z,101478.75
2018-10-11T03:56:13.931Z,101482.78
2018-10-11T03:58:42.650Z,101483.47
2018-10-11T04:01:11.425Z,101481.47
2018-10-11T04:03:40.206Z,101479.44
2018-10-11T04:06:09.002Z,101482.81
2018-10-11T04:08:38.282Z,101474.64
2018-10-11T04:11:06.990Z,101474.67
2018-10-11T04:13:35.673Z,101477.75
2018-10-11T04:16:04.713Z,101476.70
2018-10-11T04:18:33.514Z,101475.90
2018-10-11T04:21:02.218Z,101469.22
2018-10-11T04:23:32.329Z,101469.07
2018-10-11T04:26:01.492Z,101461.22
2018-10-11T04:28:30.734Z,101460.00
2018-10-11T04:31:01.224Z,101462.69
2018-10-11T04:33:30.548Z,101458.87
2018-10-11T04:35:59.803Z,101454.84
2018-10-11T04:38:28.972Z,101454.52
2018-10-11T04:40:58.151Z,101454.88
2018-10-11T04:43:26.890Z,101446.81
2018-10-11T04:45:56.297Z,101447.83
2018-10-11T04:48:26.100Z,101442.13
2018-10-11T04:50:55.648Z,101436.83
2018-10-11T04:53:24.410Z,101428.11
2018-10-11T04:55:53.806Z,101437.52
2018-10-11T04:58:22.609Z,101433.48
2018-10-11T05:00:51.341Z,101434.83
2018-10-11T05:03:21.611Z,101440.20
2018-10-11T05:05:50.293Z,101437.66
2018-10-11T05:08:19.390Z,101439.18
2018-10-11T05:10:48.702Z,101441.86
2018-10-11T05:13:18.201Z,101440.02
2018-10-11T05:15:47.029Z,101445.20
2018-10-11T05:18:17.834Z,101449.27
2018-10-11T05:20:46.799Z,101447.23
2018-10-11T05:23:15.929Z,101446.55
2018-10-11T05:25:44.772Z,101448.16
2018-10-11T05:28:13.815Z,101447.50
2018-10-11T05:30:45.167Z,101445.53
2018-10-11T05:33:15.089Z,101449.35
2018-10-11T05:35:44.376Z,101450.70
2018-10-11T05:38:13.199Z,101452.55
2018-10-11T05:40:42.313Z,101446.37
2018-10-11T05:43:12.686Z,101451.92
2018-10-11T05:45:41.825Z,101447.89
2018-10-11T05:48:10.633Z,101445.53
2018-10-11T05:50:39.668Z,101440.45
2018-10-11T05:53:08.014Z,101439.08
2018-10-11T05:55:36.807Z,101433.53
2018-10-11T05:58:05.714Z,101436.04
2018-10-11T06:00:34.916Z,101430.67
2018-10-11T06:03:04.314Z,101438.66
2018-10-11T06:05:33.437Z,101437.97
2018-10-11T06:08:03.045Z,101445.31
2018-10-11T06:10:33.999Z,101441.24
2018-10-11T06:13:04.105Z,101446.95
2018-10-11T06:15:32.839Z,101442.67
2018-10-11T06:18:02.391Z,101440.81
2018-10-11T06:20:31.262Z,101435.12
2018-10-11T06:23:00.465Z,101434.28
2018-10-11T06:25:30.085Z,101439.14
2018-10-11T06:27:59.203Z,101440.81
2018-10-11T06:30:29.005Z,101441.80
2018-10-11T06:32:57.912Z,101443.44
2018-10-11T06:35:27.538Z,101447.28
2018-10-11T06:37:57.010Z,101446.45
2018-10-11T06:40:26.200Z,101449.78
2018-10-11T06:42:55.029Z,101449.78
2018-10-11T06:45:24.062Z,101441.40
2018-10-11T06:47:57.567Z,101451.45
2018-10-11T06:50:26.668Z,101445.50
2018-10-11T06:52:55.687Z,101450.00
2018-10-11T06:55:24.415Z,101447.06
2018-10-11T06:57:53.430Z,101447.90
2018-10-11T07:00:22.441Z,101445.47
2018-10-11T07:02:51.563Z,101452.66
2018-10-11T07:05:20.313Z,101452.77
2018-10-11T07:07:49.356Z,101455.66
2018-10-11T07:10:18.520Z,101459.95
2018-10-11T07:12:47.196Z,101464.26
2018-10-11T07:15:16.333Z,101467.70
2018-10-11T07:17:45.109Z,101467.45
2018-10-11T07:20:14.079Z,101464.38
2018-10-11T07:22:42.902Z,101468.99
2018-10-11T07:25:11.607Z,101472.58
2018-10-11T07:27:40.783Z,101476.92
2018-10-11T07:30:09.772Z,101470.03
2018-10-11T07:32:38.537Z,101470.55
2018-10-11T07:35:07.864Z,101461.64
2018-10-11T07:37:37.204Z,101466.47
2018-10-11T07:40:06.061Z,101460.56
2018-10-11T07:42:35.158Z,101458.27
2018-10-11T07:45:04.228Z,101447.15
2018-10-11T07:47:32.973Z,101441.70
2018-10-11T07:50:02.092Z,101452.83
2018-10-11T07:52:30.918Z,101440.52
2018-10-11T07:54:59.711Z,101438.45
2018-10-11T07:57:28.572Z,101440.34
2018-10-11T07:59:57.354Z,101429.50
2018-10-11T08:02:26.062Z,101430.02
2018-10-11T08:04:54.776Z,101428.98
2018-10-11T08:07:23.617Z,101423.72
2018-10-11T08:09:52.411Z,101423.87
2018-10-11T08:12:21.454Z,101440.23
2018-10-11T08:14:50.532Z,101443.34
2018-10-11T08:17:20.005Z,101447.84
2018-10-11T08:19:48.572Z,101448.80
2018-10-11T08:22:17.643Z,101453.59
2018-10-11T08:24:46.442Z,101448.02
2018-10-11T08:27:16.117Z,101462.34
2018-10-11T08:29:45.214Z,101462.48
2018-10-11T08:32:14.035Z,101454.09
2018-10-11T08:34:42.755Z,101435.72
2018-10-11T08:37:11.512Z,101444.88
2018-10-11T08:39:40.634Z,101442.22
2018-10-11T08:42:09.767Z,101438.05
2018-10-11T08:44:39.038Z,101441.36
2018-10-11T08:47:08.100Z,101442.09
2018-10-11T08:49:36.863Z,101444.56
2018-10-11T08:52:06.183Z,101436.40
2018-10-11T08:54:40.171Z,101445.82
2018-10-11T08:57:10.561Z,101450.09
2018-10-11T08:59:40.399Z,101447.34
2018-10-11T09:02:09.153Z,101438.88
2018-10-11T09:04:38.191Z,101443.34
2018-10-11T09:07:07.089Z,101436.19
2018-10-11T09:09:35.904Z,101434.89
2018-10-11T09:12:04.979Z,101431.08
2018-10-11T09:14:33.727Z,101429.20
2018-10-11T09:17:02.504Z,101428.47
2018-10-11T09:19:31.305Z,101426.22
2018-10-11T09:22:00.809Z,101432.92
2018-10-11T09:24:29.661Z,101432.06
2018-10-11T09:26:58.590Z,101439.81
2018-10-11T09:29:27.316Z,101435.90
2018-10-11T09:31:56.175Z,101452.23
2018-10-11T09:34:24.941Z,101442.99
2018-10-11T09:36:53.739Z,101450.20
2018-10-11T09:39:22.963Z,101439.58
2018-10-11T09:41:52.528Z,101437.53
2018-10-11T09:44:21.615Z,101440.33
2018-10-11T09:46:50.405Z,101454.59
2018-10-11T09:49:19.244Z,101444.50
2018-10-11T09:51:48.261Z,101436.57
2018-10-11T09:54:17.314Z,101436.02
2018-10-11T09:57:21.828Z,101435.16
2018-10-11T09:59:51.577Z,101438.31
2018-10-11T10:02:21.154Z,101435.72
2018-10-11T10:04:51.368Z,101431.95
2018-10-11T10:07:20.773Z,101426.33
2018-10-11T10:09:49.712Z,101420.61
2018-10-11T10:12:18.687Z,101422.97
2018-10-11T10:14:48.133Z,101425.35
2018-10-11T10:17:17.126Z,101423.98
2018-10-11T10:19:46.272Z,101432.72
2018-10-11T10:22:14.965Z,101434.17
2018-10-11T10:24:43.682Z,101435.72
2018-10-11T10:27:12.932Z,101439.69
2018-10-11T10:29:42.229Z,101438.73
2018-10-11T10:32:11.315Z,101433.51
2018-10-11T10:34:40.681Z,101434.14
2018-10-11T10:37:09.384Z,101427.17
2018-10-11T10:39:38.493Z,101417.97
2018-10-11T10:42:07.869Z,101410.36
2018-10-11T10:44:37.488Z,101404.41
2018-10-11T10:47:06.520Z,101402.56
2018-10-11T10:49:35.291Z,101389.86
2018-10-11T10:52:04.004Z,101386.50
2018-10-11T10:54:34.213Z,101387.68
2018-10-11T10:57:03.862Z,101388.50
2018-10-11T10:59:32.923Z,101386.81
2018-10-11T11:02:01.596Z,101386.99
2018-10-11T11:04:30.614Z,101380.55
2018-10-11T11:06:59.597Z,101375.83
2018-10-11T11:09:28.595Z,101376.08
2018-10-11T11:11:57.658Z,101374.72
2018-10-11T11:14:26.788Z,101370.45
2018-10-11T11:16:55.460Z,101369.23
2018-10-11T11:19:24.195Z,101361.61
2018-10-11T11:21:53.842Z,101355.52
2018-10-11T11:24:22.713Z,101354.91
2018-10-11T11:26:51.470Z,101349.02
2018-10-11T11:29:20.257Z,101346.29
2018-10-11T11:31:48.889Z,101342.92
2018-10-11T11:34:18.303Z,101339.42
2018-10-11T11:36:47.059Z,101330.58
2018-10-11T11:39:16.150Z,101331.52
2018-10-11T11:41:45.224Z,101334.82
2018-10-11T11:44:13.946Z,101332.88
2018-10-11T11:46:42.639Z,101330.93
2018-10-11T11:49:11.690Z,101338.16
2018-10-11T11:51:40.560Z,101329.91
2018-10-11T11:54:25.750Z,101335.39
2018-10-11T11:56:54.976Z,101341.89
2018-10-11T11:59:23.937Z,101341.46
2018-10-11T12:01:52.918Z,101343.77
2018-10-11T12:04:22.362Z,101344.23
2018-10-11T12:06:51.026Z,101339.30
2018-10-11T12:09:20.132Z,101341.13
2018-10-11T12:11:49.146Z,101331.83
2018-10-11T12:14:17.958Z,101331.56
2018-10-11T12:16:46.785Z,101323.23
2018-10-11T12:19:15.539Z,101328.09
2018-10-11T12:21:44.587Z,101325.98
2018-10-11T12:24:13.394Z,101321.23
2018-10-11T12:26:42.569Z,101329.94
2018-10-11T12:29:11.282Z,101324.71
2018-10-11T12:34:07.666Z,101328.89
2018-10-11T12:36:37.044Z,101332.37
2018-10-11T12:39:07.711Z,101328.80
2018-10-11T12:41:36.531Z,101326.55
2018-10-11T12:44:05.312Z,101324.80
2018-10-11T12:46:34.751Z,101324.03
2018-10-11T12:49:03.366Z,101319.90
2018-10-11T12:51:32.152Z,101319.16
2018-10-11T12:54:01.191Z,101315.61
2018-10-11T12:56:30.359Z,101323.36
2018-10-11T12:58:59.151Z,101309.30
2018-10-11T13:01:27.943Z,101306.58
2018-10-11T13:03:56.766Z,101298.07
2018-10-11T13:06:25.510Z,101300.23
2018-10-11T13:08:54.416Z,101300.77
2018-10-11T13:11:23.449Z,101294.87
2018-10-11T13:13:53.072Z,101297.89
2018-10-11T13:16:21.641Z,101298.95
2018-10-11T13:18:50.466Z,101295.86
2018-10-11T13:21:19.642Z,101295.86
2018-10-11T13:23:48.311Z,101290.12
2018-10-11T13:26:17.065Z,101283.91
2018-10-11T13:28:46.128Z,101290.71
2018-10-11T13:31:15.105Z,101293.72
2018-10-11T13:33:43.993Z,101284.60
2018-10-11T13:36:13.038Z,101282.12
2018-10-11T13:38:42.994Z,101280.52
2018-10-11T13:41:12.522Z,101280.16
2018-10-11T13:43:43.809Z,101279.25
2018-10-11T13:46:13.987Z,101285.58
2018-10-11T13:48:43.419Z,101282.86
2018-10-11T13:51:13.993Z,101279.34
2018-10-11T13:53:46.822Z,101272.59
2018-10-11T13:56:13.425Z,101271.55
2018-10-11T13:58:42.786Z,101275.91
2018-10-11T14:01:13.263Z,101277.11
2018-10-11T14:03:42.185Z,101268.14
2018-10-11T14:08:41.384Z,101270.63
2018-10-11T14:11:10.832Z,101266.52
2018-10-11T14:13:42.130Z,101268.41
2018-10-11T14:16:14.098Z,101265.53
2018-10-11T14:18:43.834Z,101253.64
2018-10-11T14:21:13.218Z,101250.63
2018-10-11T14:23:42.615Z,101252.81
2018-10-11T14:26:13.146Z,101255.34
2018-10-11T14:28:42.346Z,101249.56
2018-10-11T14:31:11.628Z,101243.48
2018-10-11T14:33:40.901Z,101249.10
2018-10-11T14:36:11.139Z,101237.37
2018-10-11T14:38:40.627Z,101244.95
2018-10-11T14:41:09.576Z,101248.50
2018-10-11T14:43:39.945Z,101247.75
2018-10-11T14:46:10.650Z,101246.66
2018-10-11T14:48:39.373Z,101236.92
2018-10-11T14:51:08.954Z,101242.36
2018-10-11T14:53:37.768Z,101245.19
2018-10-11T14:56:06.571Z,101238.81
2018-10-11T14:58:35.403Z,101234.20
2018-10-11T15:01:04.500Z,101239.02
2018-10-11T15:03:34.561Z,101239.19
2018-10-11T15:06:04.071Z,101237.00
2018-10-11T15:08:34.714Z,101240.55
2018-10-11T15:11:05.006Z,101240.70
2018-10-11T15:13:34.873Z,101241.85
2018-10-11T15:16:03.762Z,101243.42
2018-10-11T15:18:32.423Z,101247.45
2018-10-11T15:21:01.259Z,101248.97
2018-10-11T15:23:29.923Z,101255.47
2018-10-11T15:25:58.906Z,101255.23
2018-10-11T15:28:27.597Z,101253.52
2018-10-11T15:30:56.339Z,101243.39
2018-10-11T15:33:25.029Z,101255.33
2018-10-11T15:35:53.783Z,101252.70
2018-10-11T15:38:22.891Z,101259.73
2018-10-11T15:40:51.892Z,101257.84
2018-10-11T15:43:20.894Z,101263.52
2018-10-11T15:45:49.985Z,101259.94
2018-10-11T15:48:19.018Z,101259.25
2018-10-11T15:50:48.053Z,101255.62
2018-10-11T15:53:17.639Z,101247.84
2018-10-11T15:55:46.806Z,101247.89
2018-10-11T15:58:15.625Z,101249.09
2018-10-11T16:00:44.521Z,101246.16
2018-10-11T16:03:13.544Z,101252.55
2018-10-11T16:05:42.788Z,101255.09
2018-10-11T16:08:11.593Z,101253.64
2018-10-11T16:10:40.304Z,101257.31
2018-10-11T16:13:09.087Z,101258.20
2018-10-11T16:15:38.222Z,101256.59
2018-10-11T16:18:07.028Z,101267.50
2018-10-11T16:20:36.022Z,101268.91
2018-10-11T16:23:05.065Z,101274.37
2018-10-11T16:25:33.746Z,101273.66
2018-10-11T16:28:02.866Z,101275.64
2018-10-11T16:30:31.634Z,101274.92
2018-10-11T16:33:00.730Z,101278.05
2018-10-11T16:35:30.778Z,101273.00
2018-10-11T16:37:59.514Z,101273.63
2018-10-11T16:40:28.576Z,101274.86
2018-10-11T16:42:58.097Z,101270.87
2018-10-11T16:45:26.932Z,101284.42
2018-10-11T16:47:55.715Z,101281.94
2018-10-11T16:50:24.439Z,101287.81
2018-10-11T16:52:53.273Z,101285.28
2018-10-11T16:55:22.108Z,101291.45
2018-10-11T16:57:51.156Z,101295.38
2018-10-11T17:00:19.895Z,101291.77
2018-10-11T17:02:49.004Z,101299.24
2018-10-11T17:05:18.368Z,101296.86
2018-10-11T17:07:47.092Z,101306.22
2018-10-11T17:10:16.005Z,101303.98
2018-10-11T17:12:45.041Z,101306.22
2018-10-11T17:15:14.204Z,101311.20
2018-10-11T17:17:44.095Z,101313.47
2018-10-11T17:20:13.213Z,101302.24
2018-10-11T17:22:42.000Z,101311.36
2018-10-11T17:25:10.795Z,101301.49
2018-10-11T17:27:39.990Z,101300.09
2018-10-11T17:30:09.175Z,101295.11
2018-10-11T17:32:38.480Z,101301.82
2018-10-11T17:35:07.319Z,101293.30
2018-10-11T17:37:36.275Z,101292.78
2018-10-11T17:40:05.044Z,101289.77
2018-10-11T17:42:34.747Z,101289.24
2018-10-11T17:45:04.314Z,101287.15
2018-10-11T17:47:34.865Z,101283.91
2018-10-11T17:50:03.979Z,101282.61
2018-10-11T17:52:32.858Z,101292.18
2018-10-11T17:55:02.079Z,101293.53
2018-10-11T17:57:31.139Z,101291.56
2018-10-11T18:00:00.029Z,101283.97
2018-10-11T18:02:28.890Z,101290.52
2018-10-11T18:04:57.815Z,101290.16
2018-10-11T18:07:26.793Z,101291.52
2018-10-11T18:09:56.532Z,101287.67
2018-10-11T18:12:25.548Z,101290.30
2018-10-11T18:14:54.805Z,101293.47
2018-10-11T18:17:24.042Z,101294.73
2018-10-11T18:19:54.666Z,101294.95
2018-10-11T18:22:23.488Z,101292.47
2018-10-11T18:24:52.613Z,101293.45
2018-10-11T18:27:21.401Z,101295.42
2018-10-11T18:29:52.137Z,101295.25
2018-10-11T18:32:21.386Z,101302.76
2018-10-11T18:34:50.455Z,101303.96
2018-10-11T18:37:19.715Z,101300.64
2018-10-11T18:39:48.931Z,101305.23
2018-10-11T18:42:18.005Z,101304.43
2018-10-11T18:44:48.355Z,101301.26
2018-10-11T18:47:17.304Z,101305.31
2018-10-11T18:49:46.141Z,101309.38
2018-10-11T18:52:15.362Z,101308.19
2018-10-11T18:54:44.387Z,101310.89
2018-10-11T18:57:14.320Z,101308.62
2018-10-11T18:59:44.483Z,101309.88
2018-10-11T19:02:13.659Z,101311.58
2018-10-11T19:04:42.607Z,101314.44
2018-10-11T19:07:11.581Z,101317.27
2018-10-11T19:09:40.597Z,101321.70
2018-10-11T19:12:10.863Z,101326.13
2018-10-11T19:14:39.656Z,101323.78
2018-10-11T19:17:08.542Z,101323.91
2018-10-11T19:19:37.299Z,101337.89
2018-10-11T19:22:06.161Z,101331.77
2018-10-11T19:24:35.011Z,101331.45
2018-10-11T19:27:04.004Z,101332.13
2018-10-11T19:29:32.896Z,101329.02
2018-10-11T19:32:01.863Z,101336.54
2018-10-11T19:34:30.993Z,101331.77
2018-10-11T19:37:00.696Z,101341.16
2018-10-11T19:39:29.522Z,101343.98
2018-10-11T19:41:58.279Z,101342.25
2018-10-11T19:44:27.121Z,101347.25
2018-10-11T19:46:55.981Z,101351.20
2018-10-11T19:49:25.369Z,101354.16
2018-10-11T19:51:54.118Z,101355.09
2018-10-11T19:54:22.882Z,101363.66
2018-10-11T19:56:51.935Z,101364.59
2018-10-11T19:59:21.748Z,101371.49
2018-10-11T20:01:51.574Z,101379.67
2018-10-11T20:04:20.932Z,101375.86
2018-10-11T20:06:50.172Z,101374.64
2018-10-11T20:09:18.940Z,101377.87
2018-10-11T20:11:48.207Z,101379.56
2018-10-11T20:14:17.042Z,101375.72
2018-10-11T20:16:45.936Z,101377.48
2018-10-11T20:19:16.404Z,101372.21
2018-10-11T20:21:45.524Z,101379.48
2018-10-11T20:24:14.368Z,101380.20
2018-10-11T20:26:43.396Z,101380.94
2018-10-11T20:29:12.178Z,101379.82
2018-10-11T20:31:41.220Z,101383.05
2018-10-11T20:34:09.981Z,101387.82
2018-10-11T20:36:38.996Z,101391.69
2018-10-11T20:39:09.360Z,101392.30
2018-10-11T20:41:38.808Z,101390.13
2018-10-11T20:44:07.871Z,101388.45
2018-10-11T20:46:36.930Z,101393.58
2018-10-11T20:49:06.147Z,101392.51
2018-10-11T20:51:35.122Z,101395.13
2018-10-11T20:54:04.213Z,101393.36
2018-10-11T20:56:34.094Z,101396.58
2018-10-11T20:59:04.470Z,101397.53
2018-10-11T21:01:33.608Z,101398.57
2018-10-11T21:04:03.390Z,101398.98
2018-10-11T21:06:32.494Z,101403.78
2018-10-11T21:09:01.774Z,101404.82
2018-10-11T21:11:30.644Z,101410.94
2018-10-11T21:13:59.400Z,101413.64
2018-10-11T21:16:28.646Z,101415.63
2018-10-11T21:18:57.484Z,101416.86
2018-10-11T21:21:26.543Z,101416.03
2018-10-11T21:23:55.680Z,101413.64
2018-10-11T21:26:24.522Z,101412.70
2018-10-11T21:28:53.583Z,101417.70
2018-10-11T21:31:22.622Z,101415.41
2018-10-11T21:33:51.296Z,101420.92
2018-10-11T21:36:20.852Z,101416.95
2018-10-11T21:38:50.202Z,101417.71
2018-10-11T21:41:19.194Z,101418.55
2018-10-11T21:43:49.026Z,101420.10
2018-10-11T21:46:19.092Z,101418.64
2018-10-11T21:48:49.151Z,101417.49
2018-10-11T21:51:18.623Z,101419.08
2018-10-11T21:53:49.130Z,101425.50
2018-10-11T21:56:18.838Z,101423.49
2018-10-11T21:58:48.570Z,101421.20
2018-10-11T22:01:20.173Z,101421.20
2018-10-11T22:03:53.816Z,101423.89
2018-10-11T22:06:23.696Z,101424.73
2018-10-11T22:08:52.639Z,101428.98
2018-10-11T22:11:22.990Z,101429.81
2018-10-11T22:13:53.030Z,101425.68
2018-10-11T22:16:22.856Z,101426.91
2018-10-11T22:18:52.380Z,101425.76
2018-10-11T22:21:22.775Z,101423.18
2018-10-11T22:23:52.512Z,101422.34
2018-10-11T22:26:22.052Z,101429.81
2018-10-11T22:28:51.865Z,101427.94
2018-10-11T22:31:22.342Z,101437.78
2018-10-11T22:33:51.817Z,101434.05
2018-10-11T22:36:22.380Z,101433.13
2018-10-11T22:38:51.523Z,101430.52
2018-10-11T22:41:20.762Z,101427.82
2018-10-11T22:43:50.506Z,101433.73
2018-10-11T22:46:20.911Z,101429.08
2018-10-11T22:48:50.842Z,101430.11
2018-10-11T22:51:20.687Z,101430.95
2018-10-11T22:53:52.046Z,101433.84
2018-10-11T22:56:22.296Z,101427.81
2018-10-11T22:58:52.379Z,101425.94
2018-10-11T23:01:21.200Z,101421.89
2018-10-11T23:03:50.278Z,101420.42
2018-10-11T23:06:20.531Z,101417.64
2018-10-11T23:08:49.387Z,101418.99
2018-10-11T23:11:18.224Z,101424.38
2018-10-11T23:13:47.161Z,101424.06
2018-10-11T23:16:16.538Z,101423.75
2018-10-11T23:18:45.980Z,101422.01
2018-10-11T23:21:14.875Z,101424.79
2018-10-11T23:23:45.018Z,101425.81
2018-10-11T23:26:13.969Z,101431.00
2018-10-11T23:28:43.068Z,101436.08
2018-10-11T23:31:12.918Z,101433.06
2018-10-11T23:33:43.506Z,101434.53
2018-10-11T23:36:12.363Z,101436.00
2018-10-11T23:38:41.858Z,101436.59
2018-10-11T23:41:11.127Z,101445.20
2018-10-11T23:43:40.750Z,101450.08
2018-10-11T23:46:11.302Z,101445.62
2018-10-11T23:48:40.387Z,101447.81
2018-10-11T23:51:10.018Z,101448.92
2018-10-11T23:53:39.963Z,101444.16
2018-10-11T23:56:10.177Z,101451.22
2018-10-11T23:58:39.560Z,101445.50
